sensor_id;sensor_type;location;lat;lon;timestamp;P1;durP1;ratioP1;P2;durP2;ratioP2
59486;SDS011;45298;54.918;73.504;2023-03-01T00:00:05;10.30;;;5.30;;
59486;SDS011;45298;54.918;73.504;2023-03-01T00:02:37;12.35;;;5.45;;
59486;SDS011;45298;54.918;73.504;2023-03-01T00:05:06;12.50;;;6.15;;
59486;SDS011;45298;54.918;73.504;2023-03-01T00:07:35;9.73;;;5.15;;
59486;SDS011;45298;54.918;73.504;2023-03-01T00:10:04;14.43;;;6.88;;
59486;SDS011;45298;54.918;73.504;2023-03-01T00:12:33;8.57;;;4.22;;
59486;SDS011;45298;54.918;73.504;2023-03-01T00:15:02;10.50;;;5.28;;
59486;SDS011;45298;54.918;73.504;2023-03-01T00:17:32;10.50;;;5.15;;
59486;SDS011;45298;54.918;73.504;2023-03-01T00:20:01;7.75;;;4.28;;
59486;SDS011;45298;54.918;73.504;2023-03-01T00:22:31;9.05;;;4.78;;
59486;SDS011;45298;54.918;73.504;2023-03-01T00:24:59;9.60;;;4.57;;
59486;SDS011;45298;54.918;73.504;2023-03-01T00:27:28;12.95;;;5.80;;
59486;SDS011;45298;54.918;73.504;2023-03-01T00:29:57;9.25;;;4.78;;
59486;SDS011;45298;54.918;73.504;2023-03-01T00:32:26;8.57;;;4.72;;
59486;SDS011;45298;54.918;73.504;2023-03-01T00:34:55;10.27;;;5.00;;
59486;SDS011;45298;54.918;73.504;2023-03-01T00:37:24;9.88;;;4.75;;
59486;SDS011;45298;54.918;73.504;2023-03-01T00:39:56;11.80;;;5.43;;
59486;SDS011;45298;54.918;73.504;2023-03-01T00:42:25;10.65;;;4.90;;
59486;SDS011;45298;54.918;73.504;2023-03-01T00:44:54;14.65;;;5.20;;
59486;SDS011;45298;54.918;73.504;2023-03-01T00:47:23;8.93;;;4.45;;
59486;SDS011;45298;54.918;73.504;2023-03-01T00:49:52;9.48;;;5.00;;
59486;SDS011;45298;54.918;73.504;2023-03-01T00:52:21;9.43;;;5.10;;
59486;SDS011;45298;54.918;73.504;2023-03-01T00:54:52;10.23;;;4.30;;
59486;SDS011;45298;54.918;73.504;2023-03-01T00:57:21;8.82;;;4.53;;
59486;SDS011;45298;54.918;73.504;2023-03-01T00:59:49;10.55;;;5.35;;
59486;SDS011;45298;54.918;73.504;2023-03-01T01:02:20;11.05;;;4.70;;
59486;SDS011;45298;54.918;73.504;2023-03-01T01:04:49;9.27;;;5.05;;
59486;SDS011;45298;54.918;73.504;2023-03-01T01:07:18;9.77;;;4.53;;
59486;SDS011;45298;54.918;73.504;2023-03-01T01:09:47;9.32;;;4.70;;
59486;SDS011;45298;54.918;73.504;2023-03-01T01:12:16;9.20;;;4.25;;
59486;SDS011;45298;54.918;73.504;2023-03-01T01:14:45;9.25;;;4.93;;
59486;SDS011;45298;54.918;73.504;2023-03-01T01:17:14;8.23;;;4.55;;
59486;SDS011;45298;54.918;73.504;2023-03-01T01:19:42;9.57;;;4.95;;
59486;SDS011;45298;54.918;73.504;2023-03-01T01:22:11;9.93;;;5.07;;
59486;SDS011;45298;54.918;73.504;2023-03-01T01:24:40;8.00;;;4.50;;
59486;SDS011;45298;54.918;73.504;2023-03-01T01:27:09;9.82;;;4.82;;
59486;SDS011;45298;54.918;73.504;2023-03-01T01:29:37;10.38;;;4.95;;
59486;SDS011;45298;54.918;73.504;2023-03-01T01:32:06;10.90;;;5.28;;
59486;SDS011;45298;54.918;73.504;2023-03-01T01:34:35;9.30;;;5.07;;
59486;SDS011;45298;54.918;73.504;2023-03-01T01:37:04;10.93;;;5.28;;
59486;SDS011;45298;54.918;73.504;2023-03-01T01:39:36;17.38;;;7.95;;
59486;SDS011;45298;54.918;73.504;2023-03-01T01:42:04;10.93;;;5.65;;
59486;SDS011;45298;54.918;73.504;2023-03-01T01:44:33;10.77;;;5.75;;
59486;SDS011;45298;54.918;73.504;2023-03-01T01:47:06;11.02;;;5.82;;
59486;SDS011;45298;54.918;73.504;2023-03-01T01:49:43;10.25;;;5.57;;
59486;SDS011;45298;54.918;73.504;2023-03-01T01:52:22;12.48;;;6.03;;
59486;SDS011;45298;54.918;73.504;2023-03-01T01:55:08;11.65;;;5.85;;
59486;SDS011;45298;54.918;73.504;2023-03-01T01:57:47;12.32;;;5.80;;
59486;SDS011;45298;54.918;73.504;2023-03-01T02:00:21;12.63;;;5.85;;
59486;SDS011;45298;54.918;73.504;2023-03-01T02:02:55;10.02;;;5.22;;
59486;SDS011;45298;54.918;73.504;2023-03-01T02:08:07;11.65;;;5.70;;
59486;SDS011;45298;54.918;73.504;2023-03-01T02:10:39;11.60;;;6.07;;
59486;SDS011;45298;54.918;73.504;2023-03-01T02:13:09;11.98;;;6.13;;
59486;SDS011;45298;54.918;73.504;2023-03-01T02:15:40;11.65;;;6.25;;
59486;SDS011;45298;54.918;73.504;2023-03-01T02:18:12;10.05;;;5.63;;
59486;SDS011;45298;54.918;73.504;2023-03-01T02:20:50;11.68;;;6.22;;
59486;SDS011;45298;54.918;73.504;2023-03-01T02:23:37;14.23;;;6.43;;
59486;SDS011;45298;54.918;73.504;2023-03-01T02:26:20;15.98;;;6.78;;
59486;SDS011;45298;54.918;73.504;2023-03-01T02:28:59;12.63;;;6.47;;
59486;SDS011;45298;54.918;73.504;2023-03-01T02:31:28;12.20;;;6.25;;
59486;SDS011;45298;54.918;73.504;2023-03-01T02:34:13;13.98;;;6.03;;
59486;SDS011;45298;54.918;73.504;2023-03-01T02:37:18;13.13;;;5.85;;
59486;SDS011;45298;54.918;73.504;2023-03-01T02:39:48;14.55;;;6.32;;
59486;SDS011;45298;54.918;73.504;2023-03-01T02:42:30;12.57;;;6.40;;
59486;SDS011;45298;54.918;73.504;2023-03-01T02:45:04;11.52;;;6.32;;
59486;SDS011;45298;54.918;73.504;2023-03-01T02:47:33;13.05;;;6.43;;
59486;SDS011;45298;54.918;73.504;2023-03-01T02:50:10;14.77;;;6.47;;
59486;SDS011;45298;54.918;73.504;2023-03-01T02:55:56;15.82;;;7.65;;
59486;SDS011;45298;54.918;73.504;2023-03-01T02:58:25;14.13;;;6.65;;
59486;SDS011;45298;54.918;73.504;2023-03-01T03:00:54;14.02;;;6.97;;
59486;SDS011;45298;54.918;73.504;2023-03-01T03:03:25;12.02;;;6.55;;
59486;SDS011;45298;54.918;73.504;2023-03-01T03:05:54;13.82;;;6.78;;
59486;SDS011;45298;54.918;73.504;2023-03-01T03:08:22;14.77;;;7.18;;
59486;SDS011;45298;54.918;73.504;2023-03-01T03:10:52;13.68;;;6.88;;
59486;SDS011;45298;54.918;73.504;2023-03-01T03:13:21;13.52;;;7.30;;
59486;SDS011;45298;54.918;73.504;2023-03-01T03:15:50;13.43;;;6.90;;
59486;SDS011;45298;54.918;73.504;2023-03-01T03:18:19;12.38;;;6.50;;
59486;SDS011;45298;54.918;73.504;2023-03-01T03:20:47;14.38;;;7.45;;
59486;SDS011;45298;54.918;73.504;2023-03-01T03:23:20;12.48;;;6.70;;
59486;SDS011;45298;54.918;73.504;2023-03-01T03:25:50;14.98;;;6.97;;
59486;SDS011;45298;54.918;73.504;2023-03-01T03:28:19;12.15;;;6.20;;
59486;SDS011;45298;54.918;73.504;2023-03-01T03:30:51;13.95;;;6.60;;
59486;SDS011;45298;54.918;73.504;2023-03-01T03:33:19;16.90;;;6.93;;
59486;SDS011;45298;54.918;73.504;2023-03-01T03:35:49;12.80;;;6.85;;
59486;SDS011;45298;54.918;73.504;2023-03-01T03:38:19;12.90;;;6.68;;
59486;SDS011;45298;54.918;73.504;2023-03-01T03:40:50;13.82;;;7.18;;
59486;SDS011;45298;54.918;73.504;2023-03-01T03:43:29;11.90;;;6.53;;
59486;SDS011;45298;54.918;73.504;2023-03-01T03:45:59;13.75;;;6.95;;
59486;SDS011;45298;54.918;73.504;2023-03-01T03:48:33;13.98;;;6.88;;
59486;SDS011;45298;54.918;73.504;2023-03-01T03:51:04;13.93;;;6.90;;
59486;SDS011;45298;54.918;73.504;2023-03-01T03:53:35;12.05;;;6.80;;
59486;SDS011;45298;54.918;73.504;2023-03-01T03:56:04;13.50;;;6.78;;
59486;SDS011;45298;54.918;73.504;2023-03-01T03:58:35;11.43;;;6.30;;
59486;SDS011;45298;54.918;73.504;2023-03-01T04:01:05;13.68;;;7.03;;
59486;SDS011;45298;54.918;73.504;2023-03-01T04:03:33;11.27;;;6.05;;
59486;SDS011;45298;54.918;73.504;2023-03-01T04:06:02;11.65;;;6.32;;
59486;SDS011;45298;54.918;73.504;2023-03-01T04:08:32;10.30;;;5.75;;
59486;SDS011;45298;54.918;73.504;2023-03-01T04:11:01;11.75;;;6.00;;
59486;SDS011;45298;54.918;73.504;2023-03-01T04:13:52;10.65;;;5.63;;
59486;SDS011;45298;54.918;73.504;2023-03-01T04:16:22;12.95;;;6.68;;
59486;SDS011;45298;54.918;73.504;2023-03-01T04:18:52;10.15;;;5.63;;
59486;SDS011;45298;54.918;73.504;2023-03-01T04:21:21;11.77;;;6.15;;
59486;SDS011;45298;54.918;73.504;2023-03-01T04:23:52;10.13;;;5.68;;
59486;SDS011;45298;54.918;73.504;2023-03-01T04:26:21;11.35;;;6.22;;
59486;SDS011;45298;54.918;73.504;2023-03-01T04:28:50;12.43;;;6.20;;
59486;SDS011;45298;54.918;73.504;2023-03-01T04:31:19;10.73;;;5.82;;
59486;SDS011;45298;54.918;73.504;2023-03-01T04:33:52;10.15;;;6.10;;
59486;SDS011;45298;54.918;73.504;2023-03-01T04:36:23;11.35;;;5.93;;
59486;SDS011;45298;54.918;73.504;2023-03-01T04:38:54;12.05;;;6.30;;
59486;SDS011;45298;54.918;73.504;2023-03-01T04:41:24;10.63;;;6.30;;
59486;SDS011;45298;54.918;73.504;2023-03-01T04:43:53;12.52;;;6.78;;
59486;SDS011;45298;54.918;73.504;2023-03-01T04:46:22;12.23;;;6.63;;
59486;SDS011;45298;54.918;73.504;2023-03-01T04:48:50;12.38;;;6.93;;
59486;SDS011;45298;54.918;73.504;2023-03-01T04:51:19;15.10;;;7.93;;
59486;SDS011;45298;54.918;73.504;2023-03-01T04:53:48;14.32;;;7.75;;
59486;SDS011;45298;54.918;73.504;2023-03-01T04:56:17;13.90;;;7.82;;
59486;SDS011;45298;54.918;73.504;2023-03-01T04:58:46;14.48;;;7.97;;
59486;SDS011;45298;54.918;73.504;2023-03-01T05:01:16;15.82;;;8.77;;
59486;SDS011;45298;54.918;73.504;2023-03-01T05:03:47;15.10;;;8.18;;
59486;SDS011;45298;54.918;73.504;2023-03-01T05:06:20;18.58;;;9.38;;
59486;SDS011;45298;54.918;73.504;2023-03-01T05:08:49;18.20;;;9.43;;
59486;SDS011;45298;54.918;73.504;2023-03-01T05:11:18;18.13;;;9.48;;
59486;SDS011;45298;54.918;73.504;2023-03-01T05:13:46;17.83;;;9.30;;
59486;SDS011;45298;54.918;73.504;2023-03-01T05:16:15;17.15;;;9.45;;
59486;SDS011;45298;54.918;73.504;2023-03-01T05:18:47;16.35;;;9.43;;
59486;SDS011;45298;54.918;73.504;2023-03-01T05:21:18;17.05;;;9.68;;
59486;SDS011;45298;54.918;73.504;2023-03-01T05:23:46;15.35;;;8.85;;
59486;SDS011;45298;54.918;73.504;2023-03-01T05:26:16;14.15;;;8.43;;
59486;SDS011;45298;54.918;73.504;2023-03-01T05:28:55;16.83;;;9.18;;
59486;SDS011;45298;54.918;73.504;2023-03-01T05:31:27;16.90;;;9.52;;
59486;SDS011;45298;54.918;73.504;2023-03-01T05:33:58;17.23;;;8.82;;
59486;SDS011;45298;54.918;73.504;2023-03-01T05:36:27;15.60;;;8.60;;
59486;SDS011;45298;54.918;73.504;2023-03-01T05:38:56;15.65;;;9.32;;
59486;SDS011;45298;54.918;73.504;2023-03-01T05:41:25;14.20;;;8.82;;
59486;SDS011;45298;54.918;73.504;2023-03-01T05:43:53;13.57;;;8.35;;
59486;SDS011;45298;54.918;73.504;2023-03-01T05:46:22;13.27;;;8.15;;
59486;SDS011;45298;54.918;73.504;2023-03-01T05:48:52;14.52;;;8.48;;
59486;SDS011;45298;54.918;73.504;2023-03-01T05:51:20;15.23;;;8.55;;
59486;SDS011;45298;54.918;73.504;2023-03-01T05:53:50;15.65;;;8.70;;
59486;SDS011;45298;54.918;73.504;2023-03-01T05:56:18;12.90;;;8.00;;
59486;SDS011;45298;54.918;73.504;2023-03-01T05:58:50;14.80;;;8.75;;
59486;SDS011;45298;54.918;73.504;2023-03-01T06:01:18;14.40;;;8.63;;
59486;SDS011;45298;54.918;73.504;2023-03-01T06:03:47;13.95;;;9.00;;
59486;SDS011;45298;54.918;73.504;2023-03-01T06:06:16;15.68;;;8.43;;
59486;SDS011;45298;54.918;73.504;2023-03-01T06:08:44;13.93;;;8.73;;
59486;SDS011;45298;54.918;73.504;2023-03-01T06:11:13;13.70;;;8.05;;
59486;SDS011;45298;54.918;73.504;2023-03-01T06:13:42;14.80;;;8.90;;
59486;SDS011;45298;54.918;73.504;2023-03-01T06:16:12;14.43;;;8.88;;
59486;SDS011;45298;54.918;73.504;2023-03-01T06:18:42;14.90;;;9.05;;
59486;SDS011;45298;54.918;73.504;2023-03-01T06:21:12;15.10;;;9.45;;
59486;SDS011;45298;54.918;73.504;2023-03-01T06:23:41;15.98;;;9.10;;
59486;SDS011;45298;54.918;73.504;2023-03-01T06:26:10;16.67;;;9.45;;
59486;SDS011;45298;54.918;73.504;2023-03-01T06:28:38;17.00;;;9.77;;
59486;SDS011;45298;54.918;73.504;2023-03-01T06:31:07;16.98;;;9.23;;
59486;SDS011;45298;54.918;73.504;2023-03-01T06:33:37;17.65;;;10.88;;
59486;SDS011;45298;54.918;73.504;2023-03-01T06:36:08;18.67;;;10.57;;
59486;SDS011;45298;54.918;73.504;2023-03-01T06:38:37;16.58;;;9.60;;
59486;SDS011;45298;54.918;73.504;2023-03-01T06:41:10;15.52;;;9.85;;
59486;SDS011;45298;54.918;73.504;2023-03-01T06:43:39;19.90;;;10.73;;
59486;SDS011;45298;54.918;73.504;2023-03-01T06:46:08;19.42;;;11.20;;
59486;SDS011;45298;54.918;73.504;2023-03-01T06:48:36;22.38;;;11.50;;
59486;SDS011;45298;54.918;73.504;2023-03-01T06:51:05;19.90;;;11.35;;
59486;SDS011;45298;54.918;73.504;2023-03-01T06:53:34;20.52;;;12.00;;
59486;SDS011;45298;54.918;73.504;2023-03-01T06:56:03;18.80;;;10.43;;
59486;SDS011;45298;54.918;73.504;2023-03-01T06:58:32;20.27;;;11.32;;
59486;SDS011;45298;54.918;73.504;2023-03-01T07:01:04;20.08;;;11.15;;
59486;SDS011;45298;54.918;73.504;2023-03-01T07:03:34;21.85;;;12.40;;
59486;SDS011;45298;54.918;73.504;2023-03-01T07:06:03;20.67;;;12.00;;
59486;SDS011;45298;54.918;73.504;2023-03-01T07:08:32;20.40;;;12.15;;
59486;SDS011;45298;54.918;73.504;2023-03-01T07:11:01;21.92;;;11.98;;
59486;SDS011;45298;54.918;73.504;2023-03-01T07:13:33;21.20;;;12.43;;
59486;SDS011;45298;54.918;73.504;2023-03-01T07:16:02;21.25;;;11.75;;
59486;SDS011;45298;54.918;73.504;2023-03-01T07:18:31;19.83;;;10.88;;
59486;SDS011;45298;54.918;73.504;2023-03-01T07:21:04;22.35;;;12.50;;
59486;SDS011;45298;54.918;73.504;2023-03-01T07:23:34;20.57;;;11.77;;
59486;SDS011;45298;54.918;73.504;2023-03-01T07:26:03;19.63;;;10.05;;
59486;SDS011;45298;54.918;73.504;2023-03-01T07:28:32;23.67;;;12.15;;
59486;SDS011;45298;54.918;73.504;2023-03-01T07:31:06;21.23;;;11.85;;
59486;SDS011;45298;54.918;73.504;2023-03-01T07:33:35;19.23;;;11.13;;
59486;SDS011;45298;54.918;73.504;2023-03-01T07:36:03;22.15;;;11.35;;
59486;SDS011;45298;54.918;73.504;2023-03-01T07:38:33;20.58;;;12.07;;
59486;SDS011;45298;54.918;73.504;2023-03-01T07:41:03;21.23;;;11.13;;
59486;SDS011;45298;54.918;73.504;2023-03-01T07:43:33;22.98;;;11.05;;
59486;SDS011;45298;54.918;73.504;2023-03-01T07:46:03;22.25;;;11.63;;
59486;SDS011;45298;54.918;73.504;2023-03-01T07:48:32;21.38;;;11.60;;
59486;SDS011;45298;54.918;73.504;2023-03-01T07:51:02;19.98;;;11.00;;
59486;SDS011;45298;54.918;73.504;2023-03-01T07:53:33;19.40;;;10.93;;
59486;SDS011;45298;54.918;73.504;2023-03-01T07:56:11;22.15;;;10.48;;
59486;SDS011;45298;54.918;73.504;2023-03-01T07:58:41;20.90;;;10.65;;
59486;SDS011;45298;54.918;73.504;2023-03-01T08:01:12;17.88;;;9.10;;
59486;SDS011;45298;54.918;73.504;2023-03-01T08:03:43;19.73;;;10.40;;
59486;SDS011;45298;54.918;73.504;2023-03-01T08:06:14;17.27;;;9.70;;
59486;SDS011;45298;54.918;73.504;2023-03-01T08:08:44;15.70;;;9.25;;
59486;SDS011;45298;54.918;73.504;2023-03-01T08:11:14;18.00;;;10.10;;
59486;SDS011;45298;54.918;73.504;2023-03-01T08:13:43;19.05;;;10.07;;
59486;SDS011;45298;54.918;73.504;2023-03-01T08:18:46;16.10;;;9.02;;
59486;SDS011;45298;54.918;73.504;2023-03-01T08:21:18;16.33;;;9.60;;
59486;SDS011;45298;54.918;73.504;2023-03-01T08:23:47;18.23;;;8.52;;
59486;SDS011;45298;54.918;73.504;2023-03-01T08:26:17;14.43;;;7.93;;
59486;SDS011;45298;54.918;73.504;2023-03-01T08:28:47;15.50;;;9.05;;
59486;SDS011;45298;54.918;73.504;2023-03-01T08:31:19;15.85;;;8.35;;
59486;SDS011;45298;54.918;73.504;2023-03-01T08:33:51;16.02;;;8.43;;
59486;SDS011;45298;54.918;73.504;2023-03-01T08:36:25;16.42;;;8.25;;
59486;SDS011;45298;54.918;73.504;2023-03-01T08:39:15;13.90;;;8.25;;
59486;SDS011;45298;54.918;73.504;2023-03-01T08:41:46;14.90;;;8.43;;
59486;SDS011;45298;54.918;73.504;2023-03-01T08:44:16;14.50;;;8.38;;
59486;SDS011;45298;54.918;73.504;2023-03-01T08:46:45;14.77;;;8.68;;
59486;SDS011;45298;54.918;73.504;2023-03-01T08:49:14;14.43;;;8.48;;
59486;SDS011;45298;54.918;73.504;2023-03-01T08:51:45;15.43;;;8.20;;
59486;SDS011;45298;54.918;73.504;2023-03-01T08:54:19;14.02;;;8.30;;
59486;SDS011;45298;54.918;73.504;2023-03-01T08:56:49;17.30;;;8.97;;
59486;SDS011;45298;54.918;73.504;2023-03-01T08:59:18;16.75;;;9.20;;
59486;SDS011;45298;54.918;73.504;2023-03-01T09:01:47;16.33;;;8.85;;
59486;SDS011;45298;54.918;73.504;2023-03-01T09:04:16;14.98;;;8.95;;
59486;SDS011;45298;54.918;73.504;2023-03-01T09:06:44;16.27;;;9.20;;
59486;SDS011;45298;54.918;73.504;2023-03-01T09:09:14;18.83;;;9.77;;
59486;SDS011;45298;54.918;73.504;2023-03-01T09:11:44;17.05;;;9.25;;
59486;SDS011;45298;54.918;73.504;2023-03-01T09:14:14;17.70;;;9.90;;
59486;SDS011;45298;54.918;73.504;2023-03-01T09:16:43;17.80;;;9.82;;
59486;SDS011;45298;54.918;73.504;2023-03-01T09:19:11;17.98;;;9.77;;
59486;SDS011;45298;54.918;73.504;2023-03-01T09:21:41;19.02;;;9.20;;
59486;SDS011;45298;54.918;73.504;2023-03-01T09:24:20;19.85;;;9.82;;
59486;SDS011;45298;54.918;73.504;2023-03-01T09:26:52;17.58;;;9.75;;
59486;SDS011;45298;54.918;73.504;2023-03-01T09:29:23;18.35;;;9.63;;
59486;SDS011;45298;54.918;73.504;2023-03-01T09:31:52;18.42;;;9.75;;
59486;SDS011;45298;54.918;73.504;2023-03-01T09:34:23;18.38;;;9.25;;
59486;SDS011;45298;54.918;73.504;2023-03-01T09:36:51;19.52;;;9.90;;
59486;SDS011;45298;54.918;73.504;2023-03-01T09:39:20;18.02;;;9.50;;
59486;SDS011;45298;54.918;73.504;2023-03-01T09:41:52;20.90;;;10.25;;
59486;SDS011;45298;54.918;73.504;2023-03-01T09:44:47;17.10;;;9.38;;
59486;SDS011;45298;54.918;73.504;2023-03-01T09:47:27;18.85;;;9.93;;
59486;SDS011;45298;54.918;73.504;2023-03-01T09:50:04;17.25;;;9.82;;
59486;SDS011;45298;54.918;73.504;2023-03-01T09:58:28;18.88;;;9.90;;
59486;SDS011;45298;54.918;73.504;2023-03-01T10:01:27;16.98;;;10.02;;
59486;SDS011;45298;54.918;73.504;2023-03-01T10:09:41;18.63;;;9.68;;
59486;SDS011;45298;54.918;73.504;2023-03-01T10:12:20;17.00;;;9.45;;
59486;SDS011;45298;54.918;73.504;2023-03-01T10:15:03;17.80;;;9.63;;
59486;SDS011;45298;54.918;73.504;2023-03-01T10:20:30;24.02;;;10.07;;
59486;SDS011;45298;54.918;73.504;2023-03-01T10:23:10;17.58;;;10.40;;
59486;SDS011;45298;54.918;73.504;2023-03-01T10:28:13;19.20;;;10.32;;
59486;SDS011;45298;54.918;73.504;2023-03-01T10:30:56;20.92;;;10.18;;
59486;SDS011;45298;54.918;73.504;2023-03-01T10:33:29;19.70;;;9.98;;
59486;SDS011;45298;54.918;73.504;2023-03-01T10:36:01;20.15;;;10.75;;
59486;SDS011;45298;54.918;73.504;2023-03-01T10:38:31;18.20;;;10.05;;
59486;SDS011;45298;54.918;73.504;2023-03-01T10:41:17;22.48;;;10.75;;
59486;SDS011;45298;54.918;73.504;2023-03-01T10:43:48;26.45;;;10.75;;
59486;SDS011;45298;54.918;73.504;2023-03-01T10:46:29;21.75;;;10.93;;
59486;SDS011;45298;54.918;73.504;2023-03-01T10:51:45;23.88;;;11.68;;
59486;SDS011;45298;54.918;73.504;2023-03-01T10:56:56;25.02;;;10.40;;
59486;SDS011;45298;54.918;73.504;2023-03-01T10:59:29;21.27;;;11.13;;
59486;SDS011;45298;54.918;73.504;2023-03-01T11:02:23;24.30;;;11.23;;
59486;SDS011;45298;54.918;73.504;2023-03-01T11:04:58;27.83;;;14.00;;
59486;SDS011;45298;54.918;73.504;2023-03-01T11:07:28;29.48;;;14.55;;
59486;SDS011;45298;54.918;73.504;2023-03-01T11:09:57;25.95;;;12.05;;
59486;SDS011;45298;54.918;73.504;2023-03-01T11:12:26;24.75;;;10.75;;
59486;SDS011;45298;54.918;73.504;2023-03-01T11:14:57;26.83;;;11.60;;
59486;SDS011;45298;54.918;73.504;2023-03-01T11:17:30;26.48;;;11.85;;
59486;SDS011;45298;54.918;73.504;2023-03-01T11:22:45;24.70;;;11.50;;
59486;SDS011;45298;54.918;73.504;2023-03-01T11:25:29;29.42;;;13.30;;
59486;SDS011;45298;54.918;73.504;2023-03-01T11:28:05;28.00;;;12.98;;
59486;SDS011;45298;54.918;73.504;2023-03-01T11:30:43;26.15;;;12.02;;
59486;SDS011;45298;54.918;73.504;2023-03-01T11:38:35;25.77;;;11.93;;
59486;SDS011;45298;54.918;73.504;2023-03-01T11:41:16;28.65;;;11.30;;
59486;SDS011;45298;54.918;73.504;2023-03-01T11:44:03;25.00;;;11.07;;
59486;SDS011;45298;54.918;73.504;2023-03-01T12:06:12;29.33;;;11.30;;
59486;SDS011;45298;54.918;73.504;2023-03-01T12:19:52;28.13;;;11.23;;
59486;SDS011;45298;54.918;73.504;2023-03-01T12:22:55;26.58;;;11.23;;
59486;SDS011;45298;54.918;73.504;2023-03-01T12:25:48;28.95;;;11.20;;
59486;SDS011;45298;54.918;73.504;2023-03-01T12:28:41;28.13;;;10.88;;
59486;SDS011;45298;54.918;73.504;2023-03-01T12:36:46;29.83;;;14.10;;
59486;SDS011;45298;54.918;73.504;2023-03-01T12:50:47;28.65;;;10.40;;
59486;SDS011;45298;54.918;73.504;2023-03-01T12:53:21;25.55;;;9.98;;
59486;SDS011;45298;54.918;73.504;2023-03-01T12:55:53;24.77;;;10.70;;
59486;SDS011;45298;54.918;73.504;2023-03-01T12:58:29;27.63;;;9.93;;
59486;SDS011;45298;54.918;73.504;2023-03-01T13:12:48;31.73;;;12.27;;
59486;SDS011;45298;54.918;73.504;2023-03-01T13:17:58;27.35;;;11.00;;
59486;SDS011;45298;54.918;73.504;2023-03-01T13:33:51;30.15;;;11.02;;
59486;SDS011;45298;54.918;73.504;2023-03-01T13:38:58;25.85;;;10.63;;
59486;SDS011;45298;54.918;73.504;2023-03-01T13:49:48;31.27;;;13.07;;
59486;SDS011;45298;54.918;73.504;2023-03-01T13:55:05;29.15;;;11.00;;
59486;SDS011;45298;54.918;73.504;2023-03-01T13:57:49;24.38;;;10.63;;
59486;SDS011;45298;54.918;73.504;2023-03-01T14:03:13;30.65;;;11.10;;
59486;SDS011;45298;54.918;73.504;2023-03-01T14:06:04;32.78;;;12.85;;
59486;SDS011;45298;54.918;73.504;2023-03-01T14:08:44;24.95;;;10.70;;
59486;SDS011;45298;54.918;73.504;2023-03-01T14:17:05;27.83;;;11.50;;
59486;SDS011;45298;54.918;73.504;2023-03-01T14:22:30;24.20;;;10.05;;
59486;SDS011;45298;54.918;73.504;2023-03-01T14:25:03;25.50;;;11.18;;
59486;SDS011;45298;54.918;73.504;2023-03-01T14:27:44;37.42;;;13.85;;
59486;SDS011;45298;54.918;73.504;2023-03-01T14:30:38;25.23;;;11.02;;
59486;SDS011;45298;54.918;73.504;2023-03-01T14:36:03;23.27;;;10.10;;
59486;SDS011;45298;54.918;73.504;2023-03-01T14:38:44;26.92;;;11.68;;
59486;SDS011;45298;54.918;73.504;2023-03-01T14:41:20;25.92;;;11.20;;
59486;SDS011;45298;54.918;73.504;2023-03-01T14:46:24;27.25;;;11.18;;
59486;SDS011;45298;54.918;73.504;2023-03-01T14:49:02;26.25;;;10.73;;
59486;SDS011;45298;54.918;73.504;2023-03-01T14:51:40;28.75;;;11.63;;
59486;SDS011;45298;54.918;73.504;2023-03-01T14:56:57;27.85;;;12.10;;
59486;SDS011;45298;54.918;73.504;2023-03-01T14:59:28;27.48;;;11.65;;
59486;SDS011;45298;54.918;73.504;2023-03-01T15:01:58;26.13;;;12.05;;
59486;SDS011;45298;54.918;73.504;2023-03-01T15:04:28;29.27;;;11.52;;
59486;SDS011;45298;54.918;73.504;2023-03-01T15:06:59;30.85;;;12.60;;
59486;SDS011;45298;54.918;73.504;2023-03-01T15:09:35;24.83;;;11.18;;
59486;SDS011;45298;54.918;73.504;2023-03-01T15:15:30;30.70;;;12.63;;
59486;SDS011;45298;54.918;73.504;2023-03-01T15:18:02;28.17;;;11.82;;
59486;SDS011;45298;54.918;73.504;2023-03-01T15:20:33;26.77;;;11.45;;
59486;SDS011;45298;54.918;73.504;2023-03-01T15:23:04;23.85;;;11.38;;
59486;SDS011;45298;54.918;73.504;2023-03-01T15:25:34;29.80;;;11.68;;
59486;SDS011;45298;54.918;73.504;2023-03-01T15:28:04;24.52;;;11.95;;
59486;SDS011;45298;54.918;73.504;2023-03-01T15:30:33;25.48;;;11.35;;
59486;SDS011;45298;54.918;73.504;2023-03-01T15:36:03;23.90;;;10.52;;
59486;SDS011;45298;54.918;73.504;2023-03-01T15:39:05;24.70;;;10.93;;
59486;SDS011;45298;54.918;73.504;2023-03-01T15:41:54;26.35;;;11.10;;
59486;SDS011;45298;54.918;73.504;2023-03-01T15:44:25;26.52;;;11.07;;
59486;SDS011;45298;54.918;73.504;2023-03-01T15:47:23;26.40;;;11.30;;
59486;SDS011;45298;54.918;73.504;2023-03-01T15:49:58;25.00;;;11.55;;
59486;SDS011;45298;54.918;73.504;2023-03-01T15:52:35;25.85;;;11.25;;
59486;SDS011;45298;54.918;73.504;2023-03-01T16:00:30;22.77;;;11.40;;
59486;SDS011;45298;54.918;73.504;2023-03-01T16:02:59;23.88;;;11.68;;
59486;SDS011;45298;54.918;73.504;2023-03-01T16:05:29;27.35;;;11.95;;
59486;SDS011;45298;54.918;73.504;2023-03-01T16:08:01;25.65;;;12.18;;
59486;SDS011;45298;54.918;73.504;2023-03-01T16:10:30;24.40;;;10.85;;
59486;SDS011;45298;54.918;73.504;2023-03-01T16:12:59;24.17;;;11.15;;
59486;SDS011;45298;54.918;73.504;2023-03-01T16:15:29;28.35;;;12.20;;
59486;SDS011;45298;54.918;73.504;2023-03-01T16:18:00;25.67;;;11.88;;
59486;SDS011;45298;54.918;73.504;2023-03-01T16:20:29;27.33;;;12.20;;
59486;SDS011;45298;54.918;73.504;2023-03-01T16:23:00;28.13;;;12.98;;
59486;SDS011;45298;54.918;73.504;2023-03-01T16:25:31;30.27;;;13.43;;
59486;SDS011;45298;54.918;73.504;2023-03-01T16:28:03;29.67;;;12.90;;
59486;SDS011;45298;54.918;73.504;2023-03-01T16:30:37;30.58;;;12.05;;
59486;SDS011;45298;54.918;73.504;2023-03-01T16:33:07;26.13;;;11.63;;
59486;SDS011;45298;54.918;73.504;2023-03-01T16:35:56;27.00;;;12.23;;
59486;SDS011;45298;54.918;73.504;2023-03-01T16:38:28;26.80;;;12.68;;
59486;SDS011;45298;54.918;73.504;2023-03-01T16:40:59;24.33;;;12.27;;
59486;SDS011;45298;54.918;73.504;2023-03-01T16:43:28;34.13;;;14.13;;
59486;SDS011;45298;54.918;73.504;2023-03-01T16:45:58;25.05;;;11.38;;
59486;SDS011;45298;54.918;73.504;2023-03-01T16:48:27;25.30;;;11.77;;
59486;SDS011;45298;54.918;73.504;2023-03-01T16:50:57;24.73;;;11.98;;
59486;SDS011;45298;54.918;73.504;2023-03-01T16:53:29;28.48;;;13.48;;
59486;SDS011;45298;54.918;73.504;2023-03-01T16:56:02;27.17;;;11.77;;
59486;SDS011;45298;54.918;73.504;2023-03-01T16:58:33;26.98;;;12.07;;
59486;SDS011;45298;54.918;73.504;2023-03-01T17:01:07;26.77;;;13.00;;
59486;SDS011;45298;54.918;73.504;2023-03-01T17:03:38;27.02;;;12.05;;
59486;SDS011;45298;54.918;73.504;2023-03-01T17:06:12;24.25;;;11.45;;
59486;SDS011;45298;54.918;73.504;2023-03-01T17:08:43;29.05;;;12.45;;
59486;SDS011;45298;54.918;73.504;2023-03-01T17:11:13;27.13;;;12.20;;
59486;SDS011;45298;54.918;73.504;2023-03-01T17:13:45;29.58;;;12.57;;
59486;SDS011;45298;54.918;73.504;2023-03-01T17:16:16;27.98;;;12.40;;
59486;SDS011;45298;54.918;73.504;2023-03-01T17:18:46;26.13;;;12.20;;
59486;SDS011;45298;54.918;73.504;2023-03-01T17:21:15;29.13;;;11.57;;
59486;SDS011;45298;54.918;73.504;2023-03-01T17:23:44;28.92;;;12.20;;